Terminal Aerodrome Forecast
Issued by NWS Wakefield, VA

Home | Current Version | Previous Version | Text Only | Print | Product List | Glossary On
Versions: 1 2 3 4 5 6 7 8 9 10 11 12 13 14 15 16 17
000
FTUS41 KAKQ 262327
TAFORF
TAF
KORF 262327Z 2700/2724 14008KT P6SM SKC
     FM270300 17005KT P6SM SCT045
     FM271300 31006KT P6SM BKN120
     FM271700 01006KT P6SM BKN045
     FM272200 30004KT P6SM BKN100=

USA.gov is the U.S. government's official web portal to all federal, state and local government web resources and services.